sensor_id;sensor_type;location;lat;lon;timestamp;temperature;humidity
76168;DHT22;64927;48.214;16.378;2023-05-10T00:00:59;14.20;54.40
76168;DHT22;64927;48.214;16.378;2023-05-10T00:03:25;14.10;54.70
76168;DHT22;64927;48.214;16.378;2023-05-10T00:05:50;14.00;55.00
76168;DHT22;64927;48.214;16.378;2023-05-10T00:08:16;13.90;55.20
76168;DHT22;64927;48.214;16.378;2023-05-10T00:10:44;13.90;55.20
76168;DHT22;64927;48.214;16.378;2023-05-10T00:13:10;13.90;55.40
76168;DHT22;64927;48.214;16.378;2023-05-10T00:15:38;14.00;55.30
76168;DHT22;64927;48.214;16.378;2023-05-10T00:18:06;14.00;55.20
76168;DHT22;64927;48.214;16.378;2023-05-10T00:20:31;14.00;55.20
76168;DHT22;64927;48.214;16.378;2023-05-10T00:22:57;14.00;55.20
76168;DHT22;64927;48.214;16.378;2023-05-10T00:25:23;13.90;55.40
76168;DHT22;64927;48.214;16.378;2023-05-10T00:27:51;14.00;55.50
76168;DHT22;64927;48.214;16.378;2023-05-10T00:30:19;14.00;55.40
76168;DHT22;64927;48.214;16.378;2023-05-10T00:32:45;14.00;55.30
76168;DHT22;64927;48.214;16.378;2023-05-10T00:35:13;14.00;55.50
76168;DHT22;64927;48.214;16.378;2023-05-10T00:37:39;13.90;55.40
76168;DHT22;64927;48.214;16.378;2023-05-10T00:40:05;14.00;55.60
76168;DHT22;64927;48.214;16.378;2023-05-10T00:42:31;13.90;55.70
76168;DHT22;64927;48.214;16.378;2023-05-10T00:44:57;13.90;55.90
76168;DHT22;64927;48.214;16.378;2023-05-10T00:47:23;13.80;55.90
76168;DHT22;64927;48.214;16.378;2023-05-10T00:49:49;13.80;56.10
76168;DHT22;64927;48.214;16.378;2023-05-10T00:52:15;13.80;57.30
76168;DHT22;64927;48.214;16.378;2023-05-10T00:54:41;13.80;56.40
76168;DHT22;64927;48.214;16.378;2023-05-10T00:57:07;13.80;56.20
76168;DHT22;64927;48.214;16.378;2023-05-10T00:59:33;13.70;56.30
76168;DHT22;64927;48.214;16.378;2023-05-10T01:01:58;13.70;56.40
76168;DHT22;64927;48.214;16.378;2023-05-10T01:04:25;13.70;56.70
76168;DHT22;64927;48.214;16.378;2023-05-10T01:06:53;13.70;56.70
76168;DHT22;64927;48.214;16.378;2023-05-10T01:09:22;13.70;56.90
76168;DHT22;64927;48.214;16.378;2023-05-10T01:11:48;13.60;57.00
76168;DHT22;64927;48.214;16.378;2023-05-10T01:14:15;13.60;57.00
76168;DHT22;64927;48.214;16.378;2023-05-10T01:16:44;13.60;57.10
76168;DHT22;64927;48.214;16.378;2023-05-10T01:19:20;13.60;57.10
76168;DHT22;64927;48.214;16.378;2023-05-10T01:33:46;13.50;57.60
76168;DHT22;64927;48.214;16.378;2023-05-10T01:38:57;13.50;57.70
76168;DHT22;64927;48.214;16.378;2023-05-10T01:44:00;13.50;57.90
76168;DHT22;64927;48.214;16.378;2023-05-10T01:46:37;13.40;58.10
76168;DHT22;64927;48.214;16.378;2023-05-10T01:49:21;13.40;58.20
76168;DHT22;64927;48.214;16.378;2023-05-10T01:51:53;13.40;58.20
76168;DHT22;64927;48.214;16.378;2023-05-10T01:54:23;13.40;58.40
76168;DHT22;64927;48.214;16.378;2023-05-10T01:56:55;13.30;58.50
76168;DHT22;64927;48.214;16.378;2023-05-10T01:59:28;13.20;58.90
76168;DHT22;64927;48.214;16.378;2023-05-10T02:01:58;13.20;59.00
76168;DHT22;64927;48.214;16.378;2023-05-10T02:04:25;13.20;59.10
76168;DHT22;64927;48.214;16.378;2023-05-10T02:06:53;13.20;59.20
76168;DHT22;64927;48.214;16.378;2023-05-10T02:09:21;13.20;59.30
76168;DHT22;64927;48.214;16.378;2023-05-10T02:11:51;13.10;59.50
76168;DHT22;64927;48.214;16.378;2023-05-10T02:14:19;13.10;59.70
76168;DHT22;64927;48.214;16.378;2023-05-10T02:16:46;13.10;59.90
76168;DHT22;64927;48.214;16.378;2023-05-10T02:19:13;13.00;60.10
76168;DHT22;64927;48.214;16.378;2023-05-10T02:21:44;13.00;60.10
76168;DHT22;64927;48.214;16.378;2023-05-10T02:24:11;13.00;60.40
76168;DHT22;64927;48.214;16.378;2023-05-10T02:26:38;13.00;60.30
76168;DHT22;64927;48.214;16.378;2023-05-10T02:29:05;13.00;60.40
76168;DHT22;64927;48.214;16.378;2023-05-10T02:31:33;13.00;60.20
76168;DHT22;64927;48.214;16.378;2023-05-10T02:34:00;13.00;60.50
76168;DHT22;64927;48.214;16.378;2023-05-10T02:36:27;13.00;60.70
76168;DHT22;64927;48.214;16.378;2023-05-10T02:38:53;13.00;60.90
76168;DHT22;64927;48.214;16.378;2023-05-10T02:41:20;12.90;61.00
76168;DHT22;64927;48.214;16.378;2023-05-10T02:43:50;12.90;61.30
76168;DHT22;64927;48.214;16.378;2023-05-10T02:46:18;12.90;61.30
76168;DHT22;64927;48.214;16.378;2023-05-10T02:48:44;12.90;61.20
76168;DHT22;64927;48.214;16.378;2023-05-10T02:51:14;12.90;61.40
76168;DHT22;64927;48.214;16.378;2023-05-10T02:53:44;12.90;61.50
76168;DHT22;64927;48.214;16.378;2023-05-10T02:56:35;12.90;61.80
76168;DHT22;64927;48.214;16.378;2023-05-10T02:59:01;12.80;62.10
76168;DHT22;64927;48.214;16.378;2023-05-10T03:01:27;12.70;62.50
76168;DHT22;64927;48.214;16.378;2023-05-10T03:03:53;12.70;62.50
76168;DHT22;64927;48.214;16.378;2023-05-10T03:06:18;12.70;62.60
76168;DHT22;64927;48.214;16.378;2023-05-10T03:08:45;12.60;62.70
76168;DHT22;64927;48.214;16.378;2023-05-10T03:11:43;12.60;62.80
76168;DHT22;64927;48.214;16.378;2023-05-10T03:14:41;12.60;63.10
76168;DHT22;64927;48.214;16.378;2023-05-10T03:17:15;12.50;63.20
76168;DHT22;64927;48.214;16.378;2023-05-10T03:19:54;12.50;63.40
76168;DHT22;64927;48.214;16.378;2023-05-10T03:22:32;12.50;63.40
76168;DHT22;64927;48.214;16.378;2023-05-10T03:25:00;12.40;63.70
76168;DHT22;64927;48.214;16.378;2023-05-10T03:27:31;12.30;63.80
76168;DHT22;64927;48.214;16.378;2023-05-10T03:29:59;12.40;63.80
76168;DHT22;64927;48.214;16.378;2023-05-10T03:32:29;12.30;63.80
76168;DHT22;64927;48.214;16.378;2023-05-10T03:34:57;12.30;63.90
76168;DHT22;64927;48.214;16.378;2023-05-10T03:37:22;12.30;63.60
76168;DHT22;64927;48.214;16.378;2023-05-10T03:39:48;12.30;64.00
76168;DHT22;64927;48.214;16.378;2023-05-10T03:42:14;12.30;63.90
76168;DHT22;64927;48.214;16.378;2023-05-10T03:44:39;12.30;64.00
76168;DHT22;64927;48.214;16.378;2023-05-10T03:47:05;12.20;64.10
76168;DHT22;64927;48.214;16.378;2023-05-10T03:49:31;12.20;64.20
76168;DHT22;64927;48.214;16.378;2023-05-10T03:51:57;12.20;64.10
76168;DHT22;64927;48.214;16.378;2023-05-10T03:54:23;12.10;64.10
76168;DHT22;64927;48.214;16.378;2023-05-10T03:56:51;12.20;64.00
76168;DHT22;64927;48.214;16.378;2023-05-10T03:59:16;12.20;64.10
76168;DHT22;64927;48.214;16.378;2023-05-10T04:01:42;12.30;63.90
76168;DHT22;64927;48.214;16.378;2023-05-10T04:04:07;12.30;63.70
76168;DHT22;64927;48.214;16.378;2023-05-10T04:06:33;12.30;63.40
76168;DHT22;64927;48.214;16.378;2023-05-10T04:08:59;12.40;63.50
76168;DHT22;64927;48.214;16.378;2023-05-10T04:11:26;12.40;63.20
76168;DHT22;64927;48.214;16.378;2023-05-10T04:13:53;12.30;63.20
76168;DHT22;64927;48.214;16.378;2023-05-10T04:16:18;12.40;63.10
76168;DHT22;64927;48.214;16.378;2023-05-10T04:18:44;12.40;62.90
76168;DHT22;64927;48.214;16.378;2023-05-10T04:21:14;12.40;62.80
76168;DHT22;64927;48.214;16.378;2023-05-10T04:23:40;12.50;62.70
76168;DHT22;64927;48.214;16.378;2023-05-10T04:26:05;12.50;62.80
76168;DHT22;64927;48.214;16.378;2023-05-10T04:28:31;12.50;62.70
76168;DHT22;64927;48.214;16.378;2023-05-10T04:31:08;12.50;62.40
76168;DHT22;64927;48.214;16.378;2023-05-10T04:33:33;12.50;62.30
76168;DHT22;64927;48.214;16.378;2023-05-10T04:35:59;12.60;62.20
76168;DHT22;64927;48.214;16.378;2023-05-10T04:38:26;12.60;62.20
76168;DHT22;64927;48.214;16.378;2023-05-10T04:40:54;12.70;62.00
76168;DHT22;64927;48.214;16.378;2023-05-10T04:43:20;12.70;61.90
76168;DHT22;64927;48.214;16.378;2023-05-10T04:45:45;12.80;61.60
76168;DHT22;64927;48.214;16.378;2023-05-10T04:48:11;12.90;61.30
76168;DHT22;64927;48.214;16.378;2023-05-10T04:50:38;12.90;61.20
76168;DHT22;64927;48.214;16.378;2023-05-10T04:53:04;13.00;60.90
76168;DHT22;64927;48.214;16.378;2023-05-10T04:55:30;13.10;61.00
76168;DHT22;64927;48.214;16.378;2023-05-10T04:57:55;13.20;60.50
76168;DHT22;64927;48.214;16.378;2023-05-10T05:00:23;13.30;59.80
76168;DHT22;64927;48.214;16.378;2023-05-10T05:02:49;13.30;59.70
76168;DHT22;64927;48.214;16.378;2023-05-10T05:05:14;13.30;59.50
76168;DHT22;64927;48.214;16.378;2023-05-10T05:07:40;13.40;59.00
76168;DHT22;64927;48.214;16.378;2023-05-10T05:10:07;13.50;59.20
76168;DHT22;64927;48.214;16.378;2023-05-10T05:12:33;13.60;58.80
76168;DHT22;64927;48.214;16.378;2023-05-10T05:14:58;13.80;57.80
76168;DHT22;64927;48.214;16.378;2023-05-10T05:17:26;13.90;57.70
76168;DHT22;64927;48.214;16.378;2023-05-10T05:19:52;14.10;56.90
76168;DHT22;64927;48.214;16.378;2023-05-10T05:22:20;14.30;56.00
76168;DHT22;64927;48.214;16.378;2023-05-10T05:24:53;14.60;55.00
76168;DHT22;64927;48.214;16.378;2023-05-10T05:27:22;14.70;54.40
76168;DHT22;64927;48.214;16.378;2023-05-10T05:29:56;14.80;53.90
76168;DHT22;64927;48.214;16.378;2023-05-10T05:32:22;14.90;53.60
76168;DHT22;64927;48.214;16.378;2023-05-10T05:34:48;15.00;53.20
76168;DHT22;64927;48.214;16.378;2023-05-10T05:37:18;15.10;53.30
76168;DHT22;64927;48.214;16.378;2023-05-10T05:39:44;15.20;52.90
76168;DHT22;64927;48.214;16.378;2023-05-10T05:42:11;15.30;52.60
76168;DHT22;64927;48.214;16.378;2023-05-10T05:44:37;15.50;52.40
76168;DHT22;64927;48.214;16.378;2023-05-10T05:47:06;15.60;52.30
76168;DHT22;64927;48.214;16.378;2023-05-10T05:49:34;15.80;52.00
76168;DHT22;64927;48.214;16.378;2023-05-10T05:52:01;16.10;50.70
76168;DHT22;64927;48.214;16.378;2023-05-10T05:54:27;16.20;50.70
76168;DHT22;64927;48.214;16.378;2023-05-10T05:56:57;16.50;50.30
76168;DHT22;64927;48.214;16.378;2023-05-10T05:59:23;16.50;49.50
76168;DHT22;64927;48.214;16.378;2023-05-10T06:01:51;16.80;48.90
76168;DHT22;64927;48.214;16.378;2023-05-10T06:04:17;16.90;48.70
76168;DHT22;64927;48.214;16.378;2023-05-10T06:06:47;17.20;48.00
76168;DHT22;64927;48.214;16.378;2023-05-10T06:09:13;17.80;46.90
76168;DHT22;64927;48.214;16.378;2023-05-10T06:11:38;18.40;44.80
76168;DHT22;64927;48.214;16.378;2023-05-10T06:14:04;18.80;43.50
76168;DHT22;64927;48.214;16.378;2023-05-10T06:16:32;18.60;43.50
76168;DHT22;64927;48.214;16.378;2023-05-10T06:18:58;18.40;43.80
76168;DHT22;64927;48.214;16.378;2023-05-10T06:21:26;18.20;44.20
76168;DHT22;64927;48.214;16.378;2023-05-10T06:23:51;18.20;44.30
76168;DHT22;64927;48.214;16.378;2023-05-10T06:26:17;18.30;44.50
76168;DHT22;64927;48.214;16.378;2023-05-10T06:28:43;18.50;45.50
76168;DHT22;64927;48.214;16.378;2023-05-10T06:31:08;18.90;42.90
76168;DHT22;64927;48.214;16.378;2023-05-10T06:33:34;19.20;43.20
76168;DHT22;64927;48.214;16.378;2023-05-10T06:35:59;19.40;41.40
76168;DHT22;64927;48.214;16.378;2023-05-10T06:38:26;19.70;41.10
76168;DHT22;64927;48.214;16.378;2023-05-10T06:40:52;20.20;40.40
76168;DHT22;64927;48.214;16.378;2023-05-10T06:43:18;20.70;39.30
76168;DHT22;64927;48.214;16.378;2023-05-10T06:45:43;21.20;39.60
76168;DHT22;64927;48.214;16.378;2023-05-10T06:48:09;21.70;37.50
76168;DHT22;64927;48.214;16.378;2023-05-10T06:50:35;21.80;36.10
76168;DHT22;64927;48.214;16.378;2023-05-10T06:53:01;21.60;36.10
76168;DHT22;64927;48.214;16.378;2023-05-10T06:55:29;21.50;37.10
76168;DHT22;64927;48.214;16.378;2023-05-10T06:57:55;21.80;36.80
76168;DHT22;64927;48.214;16.378;2023-05-10T07:00:21;22.00;35.70
76168;DHT22;64927;48.214;16.378;2023-05-10T07:02:46;21.70;36.30
76168;DHT22;64927;48.214;16.378;2023-05-10T07:05:12;21.60;37.40
76168;DHT22;64927;48.214;16.378;2023-05-10T07:07:38;21.30;36.90
76168;DHT22;64927;48.214;16.378;2023-05-10T07:10:07;21.00;38.70
76168;DHT22;64927;48.214;16.378;2023-05-10T07:12:33;21.30;38.10
76168;DHT22;64927;48.214;16.378;2023-05-10T07:14:59;21.80;37.10
76168;DHT22;64927;48.214;16.378;2023-05-10T07:17:27;22.00;35.80
76168;DHT22;64927;48.214;16.378;2023-05-10T07:19:52;22.10;35.90
76168;DHT22;64927;48.214;16.378;2023-05-10T07:22:18;22.30;36.50
76168;DHT22;64927;48.214;16.378;2023-05-10T07:24:43;22.30;34.90
76168;DHT22;64927;48.214;16.378;2023-05-10T07:27:09;22.30;34.20
76168;DHT22;64927;48.214;16.378;2023-05-10T07:29:38;22.10;34.60
76168;DHT22;64927;48.214;16.378;2023-05-10T07:32:04;22.00;35.20
76168;DHT22;64927;48.214;16.378;2023-05-10T07:34:30;21.70;35.70
76168;DHT22;64927;48.214;16.378;2023-05-10T07:36:58;21.70;36.50
76168;DHT22;64927;48.214;16.378;2023-05-10T07:39:24;21.90;36.20
76168;DHT22;64927;48.214;16.378;2023-05-10T07:41:51;21.80;36.40
76168;DHT22;64927;48.214;16.378;2023-05-10T07:44:19;22.00;36.50
76168;DHT22;64927;48.214;16.378;2023-05-10T07:46:46;22.10;36.80
76168;DHT22;64927;48.214;16.378;2023-05-10T07:49:11;22.20;36.50
76168;DHT22;64927;48.214;16.378;2023-05-10T07:51:37;21.80;36.00
76168;DHT22;64927;48.214;16.378;2023-05-10T07:54:03;21.90;36.40
76168;DHT22;64927;48.214;16.378;2023-05-10T07:56:30;22.20;36.10
76168;DHT22;64927;48.214;16.378;2023-05-10T07:58:59;22.30;35.90
76168;DHT22;64927;48.214;16.378;2023-05-10T08:01:26;22.20;36.30
76168;DHT22;64927;48.214;16.378;2023-05-10T08:03:52;22.10;36.30
76168;DHT22;64927;48.214;16.378;2023-05-10T08:06:19;22.50;36.10
76168;DHT22;64927;48.214;16.378;2023-05-10T08:08:48;22.50;34.90
76168;DHT22;64927;48.214;16.378;2023-05-10T08:11:19;22.30;35.50
76168;DHT22;64927;48.214;16.378;2023-05-10T08:13:46;21.80;36.20
76168;DHT22;64927;48.214;16.378;2023-05-10T08:16:12;21.70;37.40
76168;DHT22;64927;48.214;16.378;2023-05-10T08:18:38;21.90;37.60
76168;DHT22;64927;48.214;16.378;2023-05-10T08:21:07;22.30;37.30
76168;DHT22;64927;48.214;16.378;2023-05-10T08:23:35;22.80;36.50
76168;DHT22;64927;48.214;16.378;2023-05-10T08:26:03;23.30;35.20
76168;DHT22;64927;48.214;16.378;2023-05-10T08:28:31;23.50;33.90
76168;DHT22;64927;48.214;16.378;2023-05-10T08:30:57;23.20;35.40
76168;DHT22;64927;48.214;16.378;2023-05-10T08:33:22;23.00;34.80
76168;DHT22;64927;48.214;16.378;2023-05-10T08:35:48;22.70;34.80
76168;DHT22;64927;48.214;16.378;2023-05-10T08:38:14;22.30;35.40
76168;DHT22;64927;48.214;16.378;2023-05-10T08:40:42;22.10;35.90
76168;DHT22;64927;48.214;16.378;2023-05-10T08:43:10;22.40;35.60
76168;DHT22;64927;48.214;16.378;2023-05-10T08:45:43;22.20;36.30
76168;DHT22;64927;48.214;16.378;2023-05-10T08:48:11;22.20;36.10
76168;DHT22;64927;48.214;16.378;2023-05-10T08:50:38;22.30;36.40
76168;DHT22;64927;48.214;16.378;2023-05-10T08:53:12;22.30;36.50
76168;DHT22;64927;48.214;16.378;2023-05-10T08:55:38;22.50;34.60
76168;DHT22;64927;48.214;16.378;2023-05-10T08:58:06;23.00;34.30
76168;DHT22;64927;48.214;16.378;2023-05-10T09:00:32;23.40;33.50
76168;DHT22;64927;48.214;16.378;2023-05-10T09:02:58;23.20;33.90
76168;DHT22;64927;48.214;16.378;2023-05-10T09:05:25;23.10;34.40
76168;DHT22;64927;48.214;16.378;2023-05-10T09:07:51;23.50;33.60
76168;DHT22;64927;48.214;16.378;2023-05-10T09:10:19;23.30;33.50
76168;DHT22;64927;48.214;16.378;2023-05-10T09:12:48;23.00;34.10
76168;DHT22;64927;48.214;16.378;2023-05-10T09:15:17;23.10;34.30
76168;DHT22;64927;48.214;16.378;2023-05-10T09:17:44;23.50;33.30
76168;DHT22;64927;48.214;16.378;2023-05-10T09:20:11;23.60;32.80
76168;DHT22;64927;48.214;16.378;2023-05-10T09:22:36;23.10;33.30
76168;DHT22;64927;48.214;16.378;2023-05-10T09:25:07;23.30;33.40
76168;DHT22;64927;48.214;16.378;2023-05-10T09:27:34;23.60;32.90
76168;DHT22;64927;48.214;16.378;2023-05-10T09:30:00;23.70;32.70
76168;DHT22;64927;48.214;16.378;2023-05-10T09:32:47;23.90;32.20
76168;DHT22;64927;48.214;16.378;2023-05-10T09:35:17;23.80;32.80
76168;DHT22;64927;48.214;16.378;2023-05-10T09:37:47;23.50;32.80
76168;DHT22;64927;48.214;16.378;2023-05-10T09:40:18;23.10;31.80
76168;DHT22;64927;48.214;16.378;2023-05-10T09:45:22;22.50;32.90
76168;DHT22;64927;48.214;16.378;2023-05-10T09:47:50;21.90;33.80
76168;DHT22;64927;48.214;16.378;2023-05-10T09:50:18;21.80;34.50
76168;DHT22;64927;48.214;16.378;2023-05-10T09:52:54;21.70;34.50
76168;DHT22;64927;48.214;16.378;2023-05-10T09:55:23;21.50;35.20
76168;DHT22;64927;48.214;16.378;2023-05-10T09:57:58;21.60;35.10
76168;DHT22;64927;48.214;16.378;2023-05-10T10:00:26;21.50;34.70
76168;DHT22;64927;48.214;16.378;2023-05-10T10:02:58;21.50;35.40
76168;DHT22;64927;48.214;16.378;2023-05-10T10:05:35;21.20;35.30
76168;DHT22;64927;48.214;16.378;2023-05-10T10:08:05;21.00;35.50
76168;DHT22;64927;48.214;16.378;2023-05-10T10:10:32;21.00;36.00
76168;DHT22;64927;48.214;16.378;2023-05-10T10:12:59;21.20;36.00
76168;DHT22;64927;48.214;16.378;2023-05-10T10:15:27;21.50;35.60
76168;DHT22;64927;48.214;16.378;2023-05-10T10:17:53;21.90;34.80
76168;DHT22;64927;48.214;16.378;2023-05-10T10:20:22;21.80;33.80
76168;DHT22;64927;48.214;16.378;2023-05-10T10:22:48;21.50;34.30
76168;DHT22;64927;48.214;16.378;2023-05-10T10:25:20;21.50;34.90
76168;DHT22;64927;48.214;16.378;2023-05-10T10:28:09;21.40;34.60
76168;DHT22;64927;48.214;16.378;2023-05-10T10:30:46;21.40;34.30
76168;DHT22;64927;48.214;16.378;2023-05-10T10:33:36;21.40;34.30
76168;DHT22;64927;48.214;16.378;2023-05-10T10:36:04;21.20;34.50
76168;DHT22;64927;48.214;16.378;2023-05-10T10:41:34;21.40;34.40
76168;DHT22;64927;48.214;16.378;2023-05-10T10:52:42;21.10;36.10
76168;DHT22;64927;48.214;16.378;2023-05-10T10:55:09;21.20;36.00
76168;DHT22;64927;48.214;16.378;2023-05-10T10:57:56;21.20;35.80
76168;DHT22;64927;48.214;16.378;2023-05-10T11:00:30;21.20;34.90
76168;DHT22;64927;48.214;16.378;2023-05-10T11:03:11;21.30;35.60
76168;DHT22;64927;48.214;16.378;2023-05-10T11:05:51;21.40;35.00
76168;DHT22;64927;48.214;16.378;2023-05-10T11:08:30;21.30;34.60
76168;DHT22;64927;48.214;16.378;2023-05-10T11:15:55;21.40;35.40
76168;DHT22;64927;48.214;16.378;2023-05-10T11:18:29;21.40;35.60
76168;DHT22;64927;48.214;16.378;2023-05-10T11:21:00;21.50;35.90
76168;DHT22;64927;48.214;16.378;2023-05-10T11:23:47;21.60;35.10
76168;DHT22;64927;48.214;16.378;2023-05-10T11:26:14;21.60;34.30
76168;DHT22;64927;48.214;16.378;2023-05-10T11:28:47;21.70;34.50
76168;DHT22;64927;48.214;16.378;2023-05-10T11:31:14;21.80;34.60
76168;DHT22;64927;48.214;16.378;2023-05-10T11:33:49;21.60;34.90
76168;DHT22;64927;48.214;16.378;2023-05-10T11:36:21;21.50;35.00
76168;DHT22;64927;48.214;16.378;2023-05-10T11:38:47;21.40;35.30
76168;DHT22;64927;48.214;16.378;2023-05-10T11:41:13;21.30;35.60
76168;DHT22;64927;48.214;16.378;2023-05-10T11:43:39;21.20;34.90
76168;DHT22;64927;48.214;16.378;2023-05-10T11:46:09;21.30;35.50
76168;DHT22;64927;48.214;16.378;2023-05-10T11:48:36;21.30;36.10
76168;DHT22;64927;48.214;16.378;2023-05-10T11:51:02;21.40;35.60
76168;DHT22;64927;48.214;16.378;2023-05-10T11:53:30;21.50;35.10
76168;DHT22;64927;48.214;16.378;2023-05-10T11:56:05;21.50;35.50
76168;DHT22;64927;48.214;16.378;2023-05-10T11:58:32;21.60;34.80
76168;DHT22;64927;48.214;16.378;2023-05-10T12:00:59;21.50;35.40
76168;DHT22;64927;48.214;16.378;2023-05-10T12:03:26;21.60;35.10
76168;DHT22;64927;48.214;16.378;2023-05-10T12:05:52;21.60;34.90
76168;DHT22;64927;48.214;16.378;2023-05-10T12:08:22;21.60;35.00
76168;DHT22;64927;48.214;16.378;2023-05-10T12:10:48;21.70;34.80
76168;DHT22;64927;48.214;16.378;2023-05-10T12:13:14;21.80;34.50
76168;DHT22;64927;48.214;16.378;2023-05-10T12:15:41;21.70;34.40
76168;DHT22;64927;48.214;16.378;2023-05-10T12:18:11;21.50;34.60
76168;DHT22;64927;48.214;16.378;2023-05-10T12:20:37;21.50;35.00
76168;DHT22;64927;48.214;16.378;2023-05-10T12:23:08;21.50;35.10
76168;DHT22;64927;48.214;16.378;2023-05-10T12:25:36;21.80;35.10
76168;DHT22;64927;48.214;16.378;2023-05-10T12:28:07;21.80;33.60
76168;DHT22;64927;48.214;16.378;2023-05-10T12:30:34;21.80;33.60
76168;DHT22;64927;48.214;16.378;2023-05-10T12:35:49;22.10;33.50
76168;DHT22;64927;48.214;16.378;2023-05-10T12:38:33;22.30;33.20
76168;DHT22;64927;48.214;16.378;2023-05-10T12:41:00;22.20;33.50
76168;DHT22;64927;48.214;16.378;2023-05-10T12:43:26;22.30;33.40
76168;DHT22;64927;48.214;16.378;2023-05-10T12:45:52;22.10;33.60
76168;DHT22;64927;48.214;16.378;2023-05-10T12:48:18;22.20;33.50
76168;DHT22;64927;48.214;16.378;2023-05-10T12:50:44;22.20;33.20
76168;DHT22;64927;48.214;16.378;2023-05-10T12:53:09;21.80;33.80
76168;DHT22;64927;48.214;16.378;2023-05-10T12:55:35;21.70;34.30
76168;DHT22;64927;48.214;16.378;2023-05-10T12:58:01;21.70;34.30
76168;DHT22;64927;48.214;16.378;2023-05-10T13:00:26;21.90;34.50
76168;DHT22;64927;48.214;16.378;2023-05-10T13:02:52;21.80;34.30
76168;DHT22;64927;48.214;16.378;2023-05-10T13:05:18;21.80;34.70
76168;DHT22;64927;48.214;16.378;2023-05-10T13:07:44;21.80;34.40
76168;DHT22;64927;48.214;16.378;2023-05-10T13:10:10;22.00;34.20
76168;DHT22;64927;48.214;16.378;2023-05-10T13:12:36;22.00;33.80
76168;DHT22;64927;48.214;16.378;2023-05-10T13:15:02;22.20;35.00
76168;DHT22;64927;48.214;16.378;2023-05-10T13:17:28;22.40;33.50
76168;DHT22;64927;48.214;16.378;2023-05-10T13:19:54;22.50;32.90
76168;DHT22;64927;48.214;16.378;2023-05-10T13:22:22;22.20;33.90
76168;DHT22;64927;48.214;16.378;2023-05-10T13:24:48;22.30;34.10
76168;DHT22;64927;48.214;16.378;2023-05-10T13:27:14;22.30;34.40
76168;DHT22;64927;48.214;16.378;2023-05-10T13:29:41;22.20;35.60
76168;DHT22;64927;48.214;16.378;2023-05-10T13:32:07;22.00;34.50
76168;DHT22;64927;48.214;16.378;2023-05-10T13:34:37;22.00;34.70
76168;DHT22;64927;48.214;16.378;2023-05-10T13:37:03;22.00;35.00
76168;DHT22;64927;48.214;16.378;2023-05-10T13:39:31;22.00;34.10
76168;DHT22;64927;48.214;16.378;2023-05-10T13:41:59;21.70;34.00
76168;DHT22;64927;48.214;16.378;2023-05-10T13:44:34;21.60;34.60
76168;DHT22;64927;48.214;16.378;2023-05-10T13:47:01;21.50;34.70
76168;DHT22;64927;48.214;16.378;2023-05-10T13:49:27;21.50;34.80
76168;DHT22;64927;48.214;16.378;2023-05-10T13:51:52;21.50;34.60
76168;DHT22;64927;48.214;16.378;2023-05-10T13:54:18;21.50;34.50
76168;DHT22;64927;48.214;16.378;2023-05-10T13:56:45;21.70;34.20
76168;DHT22;64927;48.214;16.378;2023-05-10T13:59:12;21.70;33.50
76168;DHT22;64927;48.214;16.378;2023-05-10T14:01:42;21.80;33.50
76168;DHT22;64927;48.214;16.378;2023-05-10T14:04:08;21.80;33.40
76168;DHT22;64927;48.214;16.378;2023-05-10T14:06:36;21.80;33.60
76168;DHT22;64927;48.214;16.378;2023-05-10T14:09:02;21.90;33.40
76168;DHT22;64927;48.214;16.378;2023-05-10T14:11:28;22.10;33.00
76168;DHT22;64927;48.214;16.378;2023-05-10T14:13:56;22.30;32.40
76168;DHT22;64927;48.214;16.378;2023-05-10T14:16:22;22.40;32.50
76168;DHT22;64927;48.214;16.378;2023-05-10T14:18:47;22.40;31.50
76168;DHT22;64927;48.214;16.378;2023-05-10T14:21:15;22.30;31.70
76168;DHT22;64927;48.214;16.378;2023-05-10T14:23:41;22.10;31.80
76168;DHT22;64927;48.214;16.378;2023-05-10T14:26:06;22.10;31.50
76168;DHT22;64927;48.214;16.378;2023-05-10T14:28:35;22.00;31.80
76168;DHT22;64927;48.214;16.378;2023-05-10T14:31:03;22.20;31.40
76168;DHT22;64927;48.214;16.378;2023-05-10T14:33:29;22.00;31.20
76168;DHT22;64927;48.214;16.378;2023-05-10T14:35:54;22.00;31.60
76168;DHT22;64927;48.214;16.378;2023-05-10T14:38:22;21.90;31.40
76168;DHT22;64927;48.214;16.378;2023-05-10T14:40:48;22.00;31.50
76168;DHT22;64927;48.214;16.378;2023-05-10T14:43:13;22.00;31.70
76168;DHT22;64927;48.214;16.378;2023-05-10T14:45:39;22.00;31.30
76168;DHT22;64927;48.214;16.378;2023-05-10T14:48:07;21.80;31.70
76168;DHT22;64927;48.214;16.378;2023-05-10T14:50:36;21.80;32.30
76168;DHT22;64927;48.214;16.378;2023-05-10T14:53:02;21.70;32.30
76168;DHT22;64927;48.214;16.378;2023-05-10T14:55:27;21.80;32.40
76168;DHT22;64927;48.214;16.378;2023-05-10T14:57:53;21.70;32.50
76168;DHT22;64927;48.214;16.378;2023-05-10T15:00:20;21.90;32.30
76168;DHT22;64927;48.214;16.378;2023-05-10T15:02:46;22.00;32.00
76168;DHT22;64927;48.214;16.378;2023-05-10T15:05:14;22.20;32.10
76168;DHT22;64927;48.214;16.378;2023-05-10T15:07:40;22.00;31.70
76168;DHT22;64927;48.214;16.378;2023-05-10T15:10:06;21.90;31.60
76168;DHT22;64927;48.214;16.378;2023-05-10T15:12:32;21.90;31.80
76168;DHT22;64927;48.214;16.378;2023-05-10T15:14:57;21.80;31.70
76168;DHT22;64927;48.214;16.378;2023-05-10T15:17:23;21.80;31.80
76168;DHT22;64927;48.214;16.378;2023-05-10T15:19:48;22.00;31.90
76168;DHT22;64927;48.214;16.378;2023-05-10T15:22:17;21.90;31.40
76168;DHT22;64927;48.214;16.378;2023-05-10T15:24:43;21.90;31.40
76168;DHT22;64927;48.214;16.378;2023-05-10T15:27:11;21.80;31.60
76168;DHT22;64927;48.214;16.378;2023-05-10T15:29:36;21.70;31.80
76168;DHT22;64927;48.214;16.378;2023-05-10T15:32:02;21.50;32.00
76168;DHT22;64927;48.214;16.378;2023-05-10T15:34:30;21.40;32.20
76168;DHT22;64927;48.214;16.378;2023-05-10T15:36:58;21.40;32.00
76168;DHT22;64927;48.214;16.378;2023-05-10T15:39:23;21.50;32.00
76168;DHT22;64927;48.214;16.378;2023-05-10T15:41:51;21.40;32.00
76168;DHT22;64927;48.214;16.378;2023-05-10T15:44:17;21.50;32.40
76168;DHT22;64927;48.214;16.378;2023-05-10T15:46:43;21.60;32.60
76168;DHT22;64927;48.214;16.378;2023-05-10T15:49:09;21.60;33.30
76168;DHT22;64927;48.214;16.378;2023-05-10T15:51:35;21.50;33.70
76168;DHT22;64927;48.214;16.378;2023-05-10T15:54:03;21.40;34.10
76168;DHT22;64927;48.214;16.378;2023-05-10T15:56:31;21.30;34.20
76168;DHT22;64927;48.214;16.378;2023-05-10T15:58:57;21.20;34.50